createdAt,value
2018-05-18T00:01:13.300Z,11.96
2018-05-18T00:03:41.710Z,11.94
2018-05-18T00:06:09.870Z,11.97
2018-05-18T00:08:38.145Z,11.65
2018-05-18T00:11:06.402Z,11.78
2018-05-18T00:13:34.654Z,11.99
2018-05-18T00:16:02.932Z,11.70
2018-05-18T00:18:31.216Z,11.56
2018-05-18T00:20:59.463Z,11.57
2018-05-18T00:23:27.727Z,11.70
2018-05-18T00:25:55.983Z,11.89
2018-05-18T00:28:24.260Z,11.92
2018-05-18T00:30:52.556Z,11.97
2018-05-18T00:33:20.827Z,11.73
2018-05-18T00:35:49.107Z,11.64
2018-05-18T00:38:17.380Z,11.56
2018-05-18T00:40:45.663Z,11.94
2018-05-18T00:43:13.936Z,11.78
2018-05-18T00:45:42.198Z,11.71
2018-05-18T00:48:10.459Z,12.04
2018-05-18T00:50:38.711Z,12.09
2018-05-18T00:53:06.977Z,12.02
2018-05-18T00:55:41.031Z,11.75
2018-05-18T00:58:09.327Z,11.63
2018-05-18T01:00:37.603Z,11.58
2018-05-18T01:03:05.869Z,11.97
2018-05-18T01:05:34.130Z,12.01
2018-05-18T01:08:02.386Z,11.84
2018-05-18T01:10:30.648Z,11.93
2018-05-18T01:12:58.922Z,12.03
2018-05-18T01:15:27.175Z,11.76
2018-05-18T01:17:55.447Z,11.67
2018-05-18T01:20:23.699Z,11.59
2018-05-18T01:22:51.965Z,11.71
2018-05-18T01:25:20.240Z,11.59
2018-05-18T01:27:48.507Z,11.97
2018-05-18T01:30:16.767Z,12.01
2018-05-18T01:32:45.035Z,11.75
2018-05-18T01:35:13.363Z,11.75
2018-05-18T01:37:41.627Z,11.76
2018-05-18T01:40:09.883Z,11.58
2018-05-18T01:42:38.202Z,11.74
2018-05-18T01:45:06.464Z,11.66
2018-05-18T01:47:34.730Z,11.69
2018-05-18T01:50:03.000Z,11.49
2018-05-18T01:52:31.267Z,11.54
2018-05-18T01:55:00.291Z,11.37
2018-05-18T01:57:28.559Z,11.02
2018-05-18T01:59:56.830Z,10.82
2018-05-18T02:02:25.089Z,10.67
2018-05-18T02:04:53.351Z,10.49
2018-05-18T02:07:21.611Z,10.54
2018-05-18T02:09:50.182Z,10.68
2018-05-18T02:12:18.436Z,10.55
2018-05-18T02:14:46.705Z,10.68
2018-05-18T02:17:14.967Z,10.87
2018-05-18T02:19:43.243Z,10.68
2018-05-18T02:22:11.494Z,10.48
2018-05-18T02:24:39.760Z,10.68
2018-05-18T02:27:08.015Z,10.62
2018-05-18T02:29:36.292Z,10.56
2018-05-18T02:32:04.564Z,10.54
2018-05-18T02:34:32.983Z,10.54
2018-05-18T02:37:01.222Z,10.59
2018-05-18T02:39:29.479Z,10.59
2018-05-18T02:41:57.754Z,10.55
2018-05-18T02:44:26.019Z,10.54
2018-05-18T02:46:54.270Z,10.63
2018-05-18T02:49:22.531Z,10.56
2018-05-18T02:51:50.786Z,10.57
2018-05-18T02:54:19.099Z,10.74
2018-05-18T02:56:48.087Z,10.54
2018-05-18T02:59:16.373Z,10.42
2018-05-18T03:01:44.629Z,10.38
2018-05-18T03:04:12.888Z,10.37
2018-05-18T03:06:41.139Z,10.36
2018-05-18T03:09:09.410Z,10.34
2018-05-18T03:11:37.680Z,10.37
2018-05-18T03:14:05.943Z,10.46
2018-05-18T03:16:34.192Z,10.36
2018-05-18T03:19:02.459Z,10.35
2018-05-18T03:21:30.710Z,10.37
2018-05-18T03:23:58.978Z,10.59
2018-05-18T03:26:27.339Z,10.79
2018-05-18T03:28:55.598Z,10.79
2018-05-18T03:31:23.854Z,10.63
2018-05-18T03:33:52.118Z,10.41
2018-05-18T03:36:21.134Z,10.49
2018-05-18T03:38:49.389Z,10.70
2018-05-18T03:41:17.651Z,10.89
2018-05-18T03:43:45.911Z,10.65
2018-05-18T03:46:14.175Z,10.90
2018-05-18T03:48:42.519Z,10.87
2018-05-18T03:51:10.715Z,10.84
2018-05-18T03:53:38.991Z,10.97
2018-05-18T03:56:07.259Z,11.03
2018-05-18T03:58:36.223Z,11.13
2018-05-18T04:01:04.490Z,11.07
2018-05-18T04:03:50.324Z,11.09
2018-05-18T04:06:36.198Z,10.76
2018-05-18T04:09:04.458Z,10.54
2018-05-18T04:11:33.423Z,10.42
2018-05-18T04:14:01.679Z,10.44
2018-05-18T04:16:29.957Z,10.48
2018-05-18T04:18:58.303Z,10.69
2018-05-18T04:21:26.580Z,10.73
2018-05-18T04:23:54.831Z,10.63
2018-05-18T04:26:23.112Z,10.58
2018-05-18T04:28:51.359Z,10.63
2018-05-18T04:31:19.632Z,10.69
2018-05-18T04:33:47.887Z,10.73
2018-05-18T04:36:16.155Z,10.80
2018-05-18T04:38:44.515Z,10.88
2018-05-18T04:41:12.768Z,11.02
2018-05-18T04:43:41.026Z,11.29
2018-05-18T04:46:09.294Z,11.62
2018-05-18T04:48:37.539Z,11.86
2018-05-18T04:51:05.907Z,12.04
2018-05-18T04:53:34.059Z,12.16
2018-05-18T04:56:02.323Z,12.46
2018-05-18T04:58:30.599Z,13.52
2018-05-18T05:00:58.875Z,14.51
2018-05-18T05:03:27.127Z,15.14
2018-05-18T05:05:55.404Z,15.73
2018-05-18T05:08:23.659Z,16.56
2018-05-18T05:10:51.934Z,17.72
2018-05-18T05:13:20.185Z,19.07
2018-05-18T05:15:48.474Z,19.48
2018-05-18T05:18:16.730Z,19.88
2018-05-18T05:20:44.998Z,20.30
2018-05-18T05:23:14.024Z,20.80
2018-05-18T05:25:42.297Z,21.61
2018-05-18T05:28:10.551Z,22.27
2018-05-18T05:30:38.815Z,22.37
2018-05-18T05:33:07.098Z,22.56
2018-05-18T05:35:35.367Z,22.02
2018-05-18T05:38:03.627Z,22.47
2018-05-18T05:40:31.890Z,23.54
2018-05-18T05:43:00.204Z,24.08
2018-05-18T05:45:28.469Z,25.10
2018-05-18T05:47:56.763Z,23.66
2018-05-18T05:50:25.027Z,22.75
2018-05-18T05:52:53.301Z,22.75
2018-05-18T05:55:21.551Z,22.16
2018-05-18T05:57:49.823Z,22.26
2018-05-18T06:00:18.088Z,23.70
2018-05-18T06:02:46.359Z,23.02
2018-05-18T06:05:14.702Z,21.74
2018-05-18T06:07:42.892Z,19.87
2018-05-18T06:10:11.147Z,18.49
2018-05-18T06:12:39.403Z,17.48
2018-05-18T06:15:07.671Z,16.73
2018-05-18T06:17:35.967Z,16.15
2018-05-18T06:20:04.223Z,15.87
2018-05-18T06:22:32.490Z,16.37
2018-05-18T06:25:00.801Z,19.21
2018-05-18T06:27:29.066Z,20.19
2018-05-18T06:29:57.331Z,19.87
2018-05-18T06:32:25.610Z,18.47
2018-05-18T06:34:54.622Z,17.40
2018-05-18T06:37:22.829Z,16.82
2018-05-18T06:39:51.077Z,16.20
2018-05-18T06:42:19.372Z,14.77
2018-05-18T06:44:47.615Z,15.05
2018-05-18T06:47:15.883Z,15.12
2018-05-18T06:49:44.139Z,15.54
2018-05-18T06:52:12.407Z,17.40
2018-05-18T06:54:40.678Z,20.81
2018-05-18T06:57:08.948Z,22.88
2018-05-18T06:59:37.215Z,21.85
2018-05-18T07:02:05.480Z,19.73
2018-05-18T07:04:33.734Z,17.92
2018-05-18T07:07:02.004Z,16.65
2018-05-18T07:09:30.279Z,16.14
2018-05-18T07:11:58.546Z,16.06
2018-05-18T07:14:26.812Z,15.94
2018-05-18T07:16:55.079Z,16.85
2018-05-18T07:19:23.337Z,19.74
2018-05-18T07:21:51.659Z,20.75
2018-05-18T07:24:19.929Z,19.89
2018-05-18T07:26:48.207Z,19.44
2018-05-18T07:29:16.462Z,18.92
2018-05-18T07:31:44.724Z,17.45
2018-05-18T07:34:13.038Z,16.80
2018-05-18T07:36:41.293Z,17.25
2018-05-18T07:39:09.563Z,17.34
2018-05-18T07:41:37.827Z,18.60
2018-05-18T07:44:06.088Z,18.51
2018-05-18T07:46:35.063Z,17.73
2018-05-18T07:49:03.326Z,16.33
2018-05-18T07:51:31.587Z,16.64
2018-05-18T07:53:59.854Z,16.23
2018-05-18T07:56:28.111Z,16.04
2018-05-18T07:58:56.375Z,15.83
2018-05-18T08:01:24.635Z,15.81
2018-05-18T08:03:52.890Z,16.79
2018-05-18T08:06:21.180Z,18.66
2018-05-18T08:08:49.454Z,17.87
2018-05-18T08:11:17.715Z,18.92
2018-05-18T08:13:45.996Z,21.11
2018-05-18T08:16:14.274Z,22.02
2018-05-18T08:18:42.550Z,23.20
2018-05-18T08:21:11.522Z,26.39
2018-05-18T08:23:41.543Z,26.74
2018-05-18T08:26:10.703Z,27.76
2018-05-18T08:28:58.667Z,28.03
2018-05-18T08:31:26.930Z,28.39
2018-05-18T08:33:55.199Z,27.99
2018-05-18T08:36:23.459Z,26.98
2018-05-18T08:38:51.735Z,26.12
2018-05-18T08:41:19.987Z,24.82
2018-05-18T08:43:48.254Z,23.87
2018-05-18T08:46:16.517Z,24.19
2018-05-18T08:48:44.774Z,22.52
2018-05-18T08:51:13.026Z,21.14
2018-05-18T08:53:41.294Z,20.36
2018-05-18T08:56:09.551Z,21.30
2018-05-18T08:58:37.822Z,25.12
2018-05-18T09:01:06.078Z,27.24
2018-05-18T09:03:34.355Z,26.88
2018-05-18T09:06:02.718Z,31.17
2018-05-18T09:08:30.984Z,28.87
2018-05-18T09:10:59.247Z,31.71
2018-05-18T09:13:27.512Z,31.68
2018-05-18T09:15:56.371Z,27.99
2018-05-18T09:18:24.639Z,23.72
2018-05-18T09:20:52.900Z,22.69
2018-05-18T09:23:21.175Z,22.72
2018-05-18T09:25:49.444Z,23.74
2018-05-18T09:28:17.694Z,22.05
2018-05-18T09:30:45.962Z,23.06
2018-05-18T09:33:14.215Z,25.77
2018-05-18T09:35:42.548Z,26.19
2018-05-18T09:38:11.126Z,25.89
2018-05-18T09:40:39.389Z,26.46
2018-05-18T09:43:07.637Z,27.33
2018-05-18T09:45:35.915Z,28.55
2018-05-18T09:48:04.183Z,28.86
2018-05-18T09:50:32.505Z,27.65
2018-05-18T09:53:00.760Z,27.57
2018-05-18T09:55:29.193Z,26.43
2018-05-18T09:57:58.151Z,26.15
2018-05-18T10:00:26.418Z,26.86
2018-05-18T10:02:54.683Z,24.98
2018-05-18T10:05:22.950Z,29.69
2018-05-18T10:07:51.213Z,27.40
2018-05-18T10:10:19.486Z,29.01
2018-05-18T10:12:47.743Z,29.27
2018-05-18T10:15:16.003Z,32.80
2018-05-18T10:17:44.254Z,29.48
2018-05-18T10:20:12.528Z,28.06
2018-05-18T10:22:40.795Z,26.40
2018-05-18T10:25:09.058Z,26.32
2018-05-18T10:27:37.319Z,24.22
2018-05-18T10:30:05.587Z,22.88
2018-05-18T10:32:33.848Z,22.64
2018-05-18T10:35:02.115Z,21.63
2018-05-18T10:37:30.380Z,20.08
2018-05-18T10:39:58.638Z,19.32
2018-05-18T10:42:26.891Z,19.19
2018-05-18T10:44:55.161Z,22.70
2018-05-18T10:47:23.406Z,26.27
2018-05-18T10:49:51.688Z,27.95
2018-05-18T10:52:19.954Z,27.07
2018-05-18T10:54:48.225Z,26.04
2018-05-18T10:57:16.487Z,24.54
2018-05-18T10:59:44.754Z,25.84
2018-05-18T11:02:13.015Z,27.07
2018-05-18T11:04:41.321Z,28.69
2018-05-18T11:07:09.583Z,27.69
2018-05-18T11:09:37.843Z,27.41
2018-05-18T11:12:06.107Z,26.63
2018-05-18T11:14:34.373Z,24.26
2018-05-18T11:17:02.640Z,23.43
2018-05-18T11:19:30.907Z,26.58
2018-05-18T11:21:59.179Z,29.81
2018-05-18T11:24:27.443Z,28.95
2018-05-18T11:26:55.703Z,24.04
2018-05-18T11:29:24.467Z,21.67
2018-05-18T11:31:52.748Z,20.86
2018-05-18T11:34:21.000Z,20.67
2018-05-18T11:36:49.259Z,21.10
2018-05-18T11:39:17.604Z,20.63
2018-05-18T11:41:45.879Z,20.49
2018-05-18T11:44:14.209Z,20.61
2018-05-18T11:46:42.398Z,21.09
2018-05-18T11:49:10.648Z,20.98
2018-05-18T11:51:38.926Z,20.83
2018-05-18T11:54:07.184Z,21.00
2018-05-18T11:56:35.459Z,23.33
2018-05-18T11:59:03.717Z,24.69
2018-05-18T12:01:31.984Z,25.76
2018-05-18T12:04:00.235Z,24.06
2018-05-18T12:06:28.503Z,25.29
2018-05-18T12:08:56.764Z,25.20
2018-05-18T12:11:25.027Z,24.75
2018-05-18T12:13:53.283Z,25.98
2018-05-18T12:16:21.543Z,27.27
2018-05-18T12:18:49.809Z,22.95
2018-05-18T12:21:18.071Z,21.97
2018-05-18T12:23:46.326Z,20.81
2018-05-18T12:26:14.629Z,21.36
2018-05-18T12:28:42.852Z,21.83
2018-05-18T12:31:11.118Z,22.55
2018-05-18T12:33:39.378Z,21.23
2018-05-18T12:36:07.646Z,21.91
2018-05-18T12:38:35.903Z,20.96
2018-05-18T12:41:04.889Z,20.44
2018-05-18T12:43:33.149Z,20.94
2018-05-18T12:46:01.420Z,21.46
2018-05-18T12:48:29.743Z,22.39
2018-05-18T12:50:58.025Z,23.83
2018-05-18T12:53:26.282Z,24.38
2018-05-18T12:55:54.531Z,23.53
2018-05-18T12:58:22.797Z,24.23
2018-05-18T13:00:51.047Z,24.50
2018-05-18T13:03:19.335Z,21.69
2018-05-18T13:05:47.592Z,20.19
2018-05-18T13:08:16.001Z,20.18
2018-05-18T13:10:44.200Z,19.89
2018-05-18T13:13:12.476Z,20.11
2018-05-18T13:15:40.726Z,19.88
2018-05-18T13:18:08.986Z,20.16
2018-05-18T13:20:37.240Z,20.98
2018-05-18T13:23:05.516Z,21.86
2018-05-18T13:25:33.762Z,22.37
2018-05-18T13:28:02.319Z,21.99
2018-05-18T13:30:30.573Z,22.70
2018-05-18T13:32:58.828Z,22.56
2018-05-18T13:35:27.091Z,22.82
2018-05-18T13:37:55.352Z,23.15
2018-05-18T13:40:23.601Z,22.57
2018-05-18T13:42:51.874Z,21.94
2018-05-18T13:45:20.126Z,21.94
2018-05-18T13:47:48.476Z,21.96
2018-05-18T13:50:16.729Z,22.84
2018-05-18T13:52:44.983Z,22.10
2018-05-18T13:55:13.247Z,22.38
2018-05-18T13:57:41.516Z,23.54
2018-05-18T14:00:09.762Z,23.35
2018-05-18T14:02:38.029Z,22.03
2018-05-18T14:05:06.280Z,21.78
2018-05-18T14:07:34.546Z,21.97
2018-05-18T14:10:02.850Z,21.76
2018-05-18T14:12:31.123Z,21.33
2018-05-18T14:14:59.374Z,21.90
2018-05-18T14:17:27.650Z,22.66
2018-05-18T14:19:55.898Z,23.33
2018-05-18T14:22:24.183Z,23.35
2018-05-18T14:24:52.453Z,23.78
2018-05-18T14:27:20.699Z,22.69
2018-05-18T14:29:48.964Z,23.20
2018-05-18T14:32:17.239Z,22.90
2018-05-18T14:34:45.513Z,23.11
2018-05-18T14:37:13.758Z,21.99
2018-05-18T14:39:42.028Z,20.83
2018-05-18T14:42:10.287Z,20.34
2018-05-18T14:44:38.551Z,20.55
2018-05-18T14:47:06.816Z,20.29
2018-05-18T14:49:35.075Z,20.91
2018-05-18T14:52:03.345Z,22.09
2018-05-18T14:54:31.619Z,21.40
2018-05-18T14:56:59.871Z,22.16
2018-05-18T14:59:28.138Z,21.99
2018-05-18T15:01:56.394Z,21.10
2018-05-18T15:04:24.662Z,20.62
2018-05-18T15:06:52.910Z,20.83
2018-05-18T15:09:21.171Z,20.65
2018-05-18T15:11:49.431Z,20.29
2018-05-18T15:14:18.406Z,19.67
2018-05-18T15:16:46.660Z,20.49
2018-05-18T15:19:14.919Z,20.57
2018-05-18T15:21:43.187Z,20.63
2018-05-18T15:24:11.446Z,20.43
2018-05-18T15:26:39.729Z,20.03
2018-05-18T15:29:08.005Z,19.94
2018-05-18T15:31:36.299Z,20.18
2018-05-18T15:34:04.555Z,20.10
2018-05-18T15:36:32.802Z,19.66
2018-05-18T15:39:01.075Z,19.74
2018-05-18T15:41:29.331Z,19.62
2018-05-18T15:43:57.663Z,19.61
2018-05-18T15:46:25.950Z,19.53
2018-05-18T15:48:54.227Z,19.59
2018-05-18T15:51:22.488Z,19.52
2018-05-18T15:53:50.752Z,19.47
2018-05-18T15:56:19.015Z,19.17
2018-05-18T15:58:47.287Z,18.96
2018-05-18T16:01:15.538Z,18.75
2018-05-18T16:03:43.804Z,18.50
2018-05-18T16:06:12.066Z,18.52
2018-05-18T16:08:40.342Z,18.46
2018-05-18T16:11:08.591Z,18.53
2018-05-18T16:13:36.832Z,18.59
2018-05-18T16:16:05.107Z,18.50
2018-05-18T16:18:33.366Z,18.43
2018-05-18T16:21:01.724Z,18.42
2018-05-18T16:23:29.951Z,18.54
2018-05-18T16:25:58.852Z,18.61
2018-05-18T16:28:27.871Z,18.68
2018-05-18T16:30:56.140Z,18.55
2018-05-18T16:33:24.440Z,18.46
2018-05-18T16:35:52.642Z,18.07
2018-05-18T16:38:20.918Z,17.84
2018-05-18T16:40:49.171Z,17.64
2018-05-18T16:43:17.423Z,17.53
2018-05-18T16:45:45.689Z,17.34
2018-05-18T16:48:13.934Z,17.26
2018-05-18T16:50:42.207Z,17.21
2018-05-18T16:53:10.518Z,17.14
2018-05-18T16:55:38.779Z,17.01
2018-05-18T16:58:07.036Z,17.03
2018-05-18T17:00:35.290Z,16.95
2018-05-18T17:03:04.666Z,16.98
2018-05-18T17:05:32.943Z,17.02
2018-05-18T17:08:01.198Z,16.93
2018-05-18T17:10:29.450Z,16.80
2018-05-18T17:12:57.708Z,16.86
2018-05-18T17:15:25.970Z,16.72
2018-05-18T17:17:55.464Z,16.72
2018-05-18T17:20:23.739Z,16.69
2018-05-18T17:22:51.986Z,16.61
2018-05-18T17:25:20.242Z,16.53
2018-05-18T17:27:48.504Z,16.60
2018-05-18T17:30:17.522Z,16.63
2018-05-18T17:32:45.771Z,16.44
2018-05-18T17:35:14.039Z,16.47
2018-05-18T17:37:42.283Z,16.35
2018-05-18T17:40:10.546Z,16.12
2018-05-18T17:42:38.825Z,15.92
2018-05-18T17:45:07.056Z,15.88
2018-05-18T17:47:35.306Z,15.94
2018-05-18T17:50:03.558Z,15.93
2018-05-18T17:52:31.810Z,15.88
2018-05-18T17:55:00.059Z,15.84
2018-05-18T17:57:28.327Z,15.80
2018-05-18T17:59:56.580Z,15.78
2018-05-18T18:02:24.844Z,15.72
2018-05-18T18:04:53.098Z,15.64
2018-05-18T18:07:21.353Z,15.58
2018-05-18T18:09:49.618Z,15.53
2018-05-18T18:12:17.888Z,15.49
2018-05-18T18:14:46.155Z,15.47
2018-05-18T18:17:14.418Z,15.41
2018-05-18T18:19:43.610Z,15.33
2018-05-18T18:22:11.862Z,15.27
2018-05-18T18:24:40.119Z,15.23
2018-05-18T18:27:08.379Z,15.19
2018-05-18T18:29:36.623Z,15.14
2018-05-18T18:32:04.883Z,15.23
2018-05-18T18:34:33.142Z,15.55
2018-05-18T18:37:01.500Z,15.50
2018-05-18T18:39:29.760Z,15.07
2018-05-18T18:41:58.049Z,14.83
2018-05-18T18:44:26.315Z,15.06
2018-05-18T18:46:54.571Z,14.83
2018-05-18T18:49:22.818Z,14.95
2018-05-18T18:51:51.082Z,14.85
2018-05-18T18:54:19.331Z,14.41
2018-05-18T18:56:47.590Z,14.23
2018-05-18T18:59:15.840Z,14.26
2018-05-18T19:01:44.160Z,14.10
2018-05-18T19:04:12.402Z,13.89
2018-05-18T19:06:40.674Z,14.13
2018-05-18T19:09:08.922Z,14.04
2018-05-18T19:11:37.184Z,13.97
2018-05-18T19:14:05.436Z,13.82
2018-05-18T19:16:33.695Z,13.56
2018-05-18T19:19:01.955Z,13.56
2018-05-18T19:21:30.667Z,13.40
2018-05-18T19:23:58.914Z,13.48
2018-05-18T19:26:27.178Z,13.01
2018-05-18T19:28:55.435Z,13.01
2018-05-18T19:31:23.703Z,12.93
2018-05-18T19:33:51.953Z,13.28
2018-05-18T19:36:20.210Z,13.30
2018-05-18T19:38:48.476Z,13.20
2018-05-18T19:41:16.726Z,12.91
2018-05-18T19:43:45.000Z,12.60
2018-05-18T19:46:13.252Z,12.32
2018-05-18T19:48:41.506Z,12.20
2018-05-18T19:51:09.795Z,12.09
2018-05-18T19:53:38.059Z,11.85
2018-05-18T19:56:06.315Z,12.14
2018-05-18T19:58:34.571Z,11.97
2018-05-18T20:01:02.827Z,11.56
2018-05-18T20:03:31.107Z,11.32
2018-05-18T20:05:59.342Z,11.20
2018-05-18T20:08:27.599Z,11.20
2018-05-18T20:10:55.846Z,11.09
2018-05-18T20:13:24.110Z,11.03
2018-05-18T20:15:52.355Z,10.92
2018-05-18T20:18:20.622Z,10.85
2018-05-18T20:20:48.869Z,11.13
2018-05-18T20:23:17.894Z,10.95
2018-05-18T20:25:46.148Z,10.75
2018-05-18T20:28:14.418Z,10.67
2018-05-18T20:30:42.723Z,10.69
2018-05-18T20:33:10.995Z,10.65
2018-05-18T20:35:39.260Z,10.64
2018-05-18T20:38:07.541Z,10.67
2018-05-18T20:40:36.540Z,10.70
2018-05-18T20:43:04.803Z,10.71
2018-05-18T20:45:33.055Z,10.70
2018-05-18T20:48:01.315Z,10.72
2018-05-18T20:50:29.579Z,11.09
2018-05-18T20:52:57.838Z,11.00
2018-05-18T20:55:26.094Z,10.99
2018-05-18T20:57:54.362Z,11.05
2018-05-18T21:00:22.680Z,10.97
2018-05-18T21:02:50.945Z,10.78
2018-05-18T21:05:19.196Z,10.53
2018-05-18T21:07:47.459Z,10.45
2018-05-18T21:10:15.711Z,10.43
2018-05-18T21:12:43.971Z,10.35
2018-05-18T21:15:12.233Z,10.29
2018-05-18T21:17:40.495Z,10.30
2018-05-18T21:20:08.750Z,10.37
2018-05-18T21:22:37.048Z,10.57
2018-05-18T21:25:05.954Z,10.34
2018-05-18T21:27:34.196Z,10.32
2018-05-18T21:30:02.466Z,10.37
2018-05-18T21:32:30.731Z,10.57
2018-05-18T21:34:59.005Z,10.51
2018-05-18T21:37:27.254Z,10.54
2018-05-18T21:39:55.516Z,10.56
2018-05-18T21:42:23.772Z,10.61
2018-05-18T21:44:52.031Z,10.72
2018-05-18T21:47:20.288Z,10.74
2018-05-18T21:49:48.583Z,11.00
2018-05-18T21:52:16.843Z,10.82
2018-05-18T21:54:45.116Z,10.71
2018-05-18T21:57:13.366Z,10.64
2018-05-18T21:59:41.631Z,10.57
2018-05-18T22:02:09.879Z,10.81
2018-05-18T22:04:38.144Z,10.56
2018-05-18T22:07:06.398Z,10.44
2018-05-18T22:09:34.669Z,10.27
2018-05-18T22:12:02.922Z,10.13
2018-05-18T22:17:29.500Z,10.11
2018-05-18T22:19:57.746Z,9.97
2018-05-18T22:22:25.991Z,9.83
2018-05-18T22:24:54.239Z,9.71
2018-05-18T22:27:22.487Z,9.68
2018-05-18T22:29:50.749Z,9.71
2018-05-18T22:32:18.990Z,9.66
2018-05-18T22:34:47.350Z,9.70
2018-05-18T22:37:15.598Z,9.70
2018-05-18T22:39:43.859Z,9.88
2018-05-18T22:42:12.104Z,9.78
2018-05-18T22:44:40.362Z,9.66
2018-05-18T22:47:08.607Z,9.68
2018-05-18T22:49:36.890Z,10.02
2018-05-18T22:52:05.134Z,9.71
2018-05-18T22:54:33.390Z,9.58
2018-05-18T22:57:01.658Z,9.46
2018-05-18T22:59:29.898Z,9.37
2018-05-18T23:01:58.146Z,9.63
2018-05-18T23:04:26.406Z,9.54
2018-05-18T23:06:54.666Z,9.36
2018-05-18T23:09:23.014Z,9.29
2018-05-18T23:11:51.167Z,9.26
2018-05-18T23:14:19.442Z,9.24
2018-05-18T23:16:47.710Z,9.19
2018-05-18T23:19:15.963Z,9.17
2018-05-18T23:21:44.204Z,9.10
2018-05-18T23:24:12.456Z,9.01
2018-05-18T23:26:40.732Z,8.94
2018-05-18T23:29:08.998Z,8.91
2018-05-18T23:31:37.295Z,8.94
2018-05-18T23:34:05.603Z,8.97
2018-05-18T23:36:33.863Z,9.23
2018-05-18T23:39:03.012Z,8.97
2018-05-18T23:41:32.031Z,8.88
2018-05-18T23:44:00.271Z,8.81
2018-05-18T23:46:29.287Z,8.84
2018-05-18T23:48:57.553Z,8.80
2018-05-18T23:51:25.790Z,8.83
2018-05-18T23:53:54.052Z,8.60
2018-05-18T23:56:22.303Z,8.62
2018-05-18T23:58:50.555Z,8.57
